createdAt,value
2022-12-03T00:01:57.830Z,89.70
2022-12-03T00:05:02.217Z,88.22
2022-12-03T00:08:06.850Z,88.05
2022-12-03T00:11:11.171Z,87.10
2022-12-03T00:14:15.130Z,90.93
2022-12-03T00:17:19.181Z,88.25
2022-12-03T00:20:24.540Z,81.43
2022-12-03T00:23:28.873Z,85.32
2022-12-03T00:26:32.875Z,80.88
2022-12-03T00:29:37.025Z,80.75
2022-12-03T00:32:41.139Z,85.53
2022-12-03T00:35:45.180Z,81.88
2022-12-03T00:38:49.580Z,82.22
2022-12-03T00:41:53.606Z,80.97
2022-12-03T00:44:57.543Z,78.63
2022-12-03T00:48:01.857Z,85.63
2022-12-03T00:51:06.340Z,79.10
2022-12-03T00:54:10.689Z,77.82
2022-12-03T00:57:15.011Z,86.57
2022-12-03T01:00:19.074Z,81.53
2022-12-03T01:03:23.191Z,77.65
2022-12-03T01:06:27.438Z,83.03
2022-12-03T01:09:31.796Z,82.75
2022-12-03T01:12:36.018Z,85.70
2022-12-03T01:15:40.416Z,77.13
2022-12-03T01:18:46.218Z,82.72
2022-12-03T01:21:51.694Z,79.72
2022-12-03T01:24:57.389Z,78.28
2022-12-03T01:28:01.512Z,75.40
2022-12-03T01:31:41.008Z,74.97
2022-12-03T01:34:47.763Z,81.35
2022-12-03T01:37:51.732Z,76.90
2022-12-03T01:40:56.025Z,74.13
2022-12-03T01:44:01.277Z,74.18
2022-12-03T01:47:07.425Z,81.18
2022-12-03T01:50:27.274Z,77.15
2022-12-03T01:53:32.399Z,78.28
2022-12-03T01:56:36.426Z,83.18
2022-12-03T01:59:40.236Z,77.50
2022-12-03T02:02:44.831Z,79.35
2022-12-03T02:05:49.223Z,76.88
2022-12-03T02:08:59.430Z,76.28
2022-12-03T02:12:03.739Z,74.80
2022-12-03T02:15:09.264Z,75.75
2022-12-03T02:18:13.302Z,75.65
2022-12-03T02:21:35.067Z,69.65
2022-12-03T02:24:43.875Z,74.03
2022-12-03T02:27:48.536Z,75.95
2022-12-03T02:30:52.639Z,72.40
2022-12-03T02:33:56.884Z,76.43
2022-12-03T02:37:01.863Z,70.75
2022-12-03T02:40:12.202Z,77.07
2022-12-03T02:43:17.532Z,72.80
2022-12-03T02:46:21.494Z,67.97
2022-12-03T02:49:25.458Z,69.88
2022-12-03T02:52:29.872Z,74.35
2022-12-03T02:55:37.315Z,77.22
2022-12-03T02:58:44.396Z,72.65
2022-12-03T03:01:49.329Z,69.80
2022-12-03T03:04:55.026Z,72.15
2022-12-03T03:08:00.622Z,73.25
2022-12-03T03:11:05.148Z,71.32
2022-12-03T03:14:09.272Z,79.22
2022-12-03T03:17:13.401Z,73.47
2022-12-03T03:20:18.641Z,75.43
2022-12-03T03:23:23.936Z,72.05
2022-12-03T03:26:27.880Z,77.40
2022-12-03T03:29:33.731Z,71.68
2022-12-03T03:32:38.438Z,68.55
2022-12-03T03:35:44.691Z,69.40
2022-12-03T03:38:49.290Z,71.15
2022-12-03T03:41:53.409Z,68.80
2022-12-03T03:44:58.466Z,71.35
2022-12-03T03:48:02.664Z,74.50
2022-12-03T03:51:09.433Z,74.95
2022-12-03T03:54:13.959Z,73.95
2022-12-03T03:57:18.009Z,71.72
2022-12-03T04:00:22.095Z,72.93
2022-12-03T04:03:27.131Z,67.25
2022-12-03T04:06:30.871Z,69.45
2022-12-03T04:09:34.791Z,66.95
2022-12-03T04:12:56.788Z,71.28
2022-12-03T04:16:00.905Z,68.43
2022-12-03T04:19:04.789Z,68.57
2022-12-03T04:22:27.067Z,64.97
2022-12-03T04:25:50.034Z,68.15
2022-12-03T04:28:54.029Z,73.35
2022-12-03T04:32:16.819Z,69.35
2022-12-03T04:35:39.701Z,65.60
2022-12-03T04:38:43.633Z,61.97
2022-12-03T04:41:47.801Z,67.68
2022-12-03T04:44:52.689Z,63.25
2022-12-03T04:47:56.960Z,65.25
2022-12-03T04:51:00.811Z,64.28
2022-12-03T04:54:04.956Z,64.78
2022-12-03T04:57:10.143Z,65.95
2022-12-03T05:00:14.568Z,64.85
2022-12-03T05:03:18.595Z,65.95
2022-12-03T05:06:23.004Z,67.60
2022-12-03T05:09:26.949Z,70.38
2022-12-03T05:12:30.880Z,67.07
2022-12-03T05:15:34.915Z,59.95
2022-12-03T05:18:38.835Z,72.25
2022-12-03T05:21:43.074Z,62.60
2022-12-03T05:24:47.279Z,59.03
2022-12-03T05:27:51.436Z,64.65
2022-12-03T05:30:55.316Z,60.88
2022-12-03T05:33:59.303Z,65.38
2022-12-03T05:37:03.540Z,63.05
2022-12-03T05:40:08.232Z,62.95
2022-12-03T05:43:12.229Z,60.53
2022-12-03T05:46:16.440Z,62.35
2022-12-03T05:49:20.550Z,71.55
2022-12-03T05:52:24.485Z,64.10
2022-12-03T05:55:28.773Z,61.65
2022-12-03T05:58:32.398Z,68.07
2022-12-03T06:01:36.125Z,66.05
2022-12-03T06:04:40.213Z,59.78
2022-12-03T06:07:44.143Z,66.05
2022-12-03T06:10:48.387Z,62.30
2022-12-03T06:13:52.409Z,65.07
2022-12-03T06:16:56.583Z,62.28
2022-12-03T06:20:00.572Z,62.88
2022-12-03T06:23:05.196Z,61.88
2022-12-03T06:26:08.921Z,60.72
2022-12-03T06:29:12.749Z,60.00
2022-12-03T06:32:16.724Z,54.70
2022-12-03T06:35:20.873Z,55.70
2022-12-03T06:38:24.830Z,55.30
2022-12-03T06:41:28.539Z,54.22
2022-12-03T06:44:32.276Z,54.65
2022-12-03T06:47:36.566Z,53.28
2022-12-03T06:50:40.379Z,51.40
2022-12-03T06:53:44.337Z,52.80
2022-12-03T06:56:48.107Z,52.80
2022-12-03T06:59:52.328Z,56.28
2022-12-03T07:02:56.920Z,55.70
2022-12-03T07:06:00.938Z,48.03
2022-12-03T07:09:04.750Z,55.28
2022-12-03T07:12:08.741Z,56.80
2022-12-03T07:15:12.991Z,53.20
2022-12-03T07:18:17.084Z,55.85
2022-12-03T07:21:21.361Z,55.00
2022-12-03T07:24:25.136Z,55.92
2022-12-03T07:27:29.081Z,48.13
2022-12-03T07:30:32.868Z,51.00
2022-12-03T07:33:36.740Z,52.50
2022-12-03T07:36:40.495Z,50.63
2022-12-03T07:39:44.332Z,52.53
2022-12-03T07:42:48.225Z,54.70
2022-12-03T07:45:52.296Z,55.92
2022-12-03T07:48:56.362Z,54.53
2022-12-03T07:52:00.397Z,52.45
2022-12-03T07:55:04.887Z,56.15
2022-12-03T07:58:09.372Z,52.15
2022-12-03T08:01:13.468Z,53.78
2022-12-03T08:04:18.944Z,57.65
2022-12-03T08:07:23.095Z,54.80
2022-12-03T08:10:27.151Z,53.38
2022-12-03T08:13:34.106Z,52.95
2022-12-03T08:16:39.524Z,57.88
2022-12-03T08:19:46.867Z,59.08
2022-12-03T08:22:52.616Z,55.15
2022-12-03T08:26:02.014Z,53.55
2022-12-03T08:29:11.626Z,57.20
2022-12-03T08:32:16.051Z,57.65
2022-12-03T08:35:24.795Z,56.92
2022-12-03T08:38:29.675Z,58.75
2022-12-03T08:41:53.764Z,56.30
2022-12-03T08:45:29.346Z,55.80
2022-12-03T08:48:34.381Z,54.67
2022-12-03T08:51:38.566Z,57.28
2022-12-03T08:54:47.667Z,55.80
2022-12-03T08:57:51.692Z,56.90
2022-12-03T09:01:33.247Z,56.80
2022-12-03T09:04:47.429Z,58.30
2022-12-03T09:07:51.546Z,58.70
2022-12-03T09:10:55.571Z,55.88
2022-12-03T09:13:59.731Z,54.85
2022-12-03T09:17:03.750Z,63.65
2022-12-03T09:20:08.351Z,55.00
2022-12-03T09:23:12.559Z,61.10
2022-12-03T09:26:16.686Z,60.17
2022-12-03T09:29:20.615Z,56.50
2022-12-03T09:32:25.025Z,55.10
2022-12-03T09:35:29.140Z,58.20
2022-12-03T09:38:33.416Z,61.53
2022-12-03T09:41:37.565Z,62.05
2022-12-03T09:44:42.285Z,59.00
2022-12-03T09:47:49.203Z,57.83
2022-12-03T09:50:52.979Z,59.63
2022-12-03T09:53:59.683Z,59.55
2022-12-03T09:57:04.294Z,54.40
2022-12-03T10:00:19.784Z,51.95
2022-12-03T10:03:29.999Z,51.55
2022-12-03T10:06:34.460Z,53.00
2022-12-03T10:09:38.614Z,57.03
2022-12-03T10:12:42.831Z,51.83
2022-12-03T10:15:48.683Z,54.35
2022-12-03T10:18:55.486Z,51.80
2022-12-03T10:21:59.390Z,52.28
2022-12-03T10:25:12.807Z,48.78
2022-12-03T10:34:41.804Z,52.42
2022-12-03T10:37:58.361Z,49.65
2022-12-03T10:41:20.496Z,51.67
2022-12-03T10:44:26.012Z,52.15
2022-12-03T10:47:30.310Z,53.67
2022-12-03T10:50:34.751Z,54.38
2022-12-03T10:53:40.871Z,60.83
2022-12-03T10:56:46.993Z,59.50
2022-12-03T10:59:51.333Z,51.47
2022-12-03T11:02:57.138Z,53.50
2022-12-03T11:06:03.480Z,58.95
2022-12-03T11:09:17.989Z,57.97
2022-12-03T11:12:28.289Z,58.00
2022-12-03T11:15:44.900Z,57.70
2022-12-03T11:18:54.977Z,55.08
2022-12-03T11:22:04.955Z,58.72
2022-12-03T11:25:27.338Z,65.07
2022-12-03T11:28:33.079Z,60.75
2022-12-03T11:31:47.690Z,55.90
2022-12-03T11:34:51.906Z,62.88
2022-12-03T11:38:35.080Z,62.65
2022-12-03T11:41:39.297Z,55.67
2022-12-03T11:44:43.408Z,61.75
2022-12-03T11:48:00.157Z,60.72
2022-12-03T11:51:04.107Z,62.10
2022-12-03T11:54:16.495Z,61.30
2022-12-03T11:57:39.631Z,59.50
2022-12-03T12:00:56.015Z,66.72
2022-12-03T12:04:00.676Z,57.63
2022-12-03T12:07:04.820Z,61.17
2022-12-03T12:10:09.293Z,62.83
2022-12-03T12:13:27.600Z,61.20
2022-12-03T12:16:52.512Z,62.72
2022-12-03T12:20:27.004Z,62.05
2022-12-03T12:23:31.192Z,61.38
2022-12-03T12:26:35.102Z,56.85
2022-12-03T12:29:41.129Z,61.80
2022-12-03T12:32:50.155Z,61.90
2022-12-03T12:35:54.268Z,60.47
2022-12-03T12:38:59.766Z,60.42
2022-12-03T12:42:19.152Z,62.55
2022-12-03T12:45:28.540Z,62.58
2022-12-03T12:48:35.248Z,62.20
2022-12-03T12:51:47.765Z,64.13
2022-12-03T12:54:52.025Z,62.20
2022-12-03T12:58:02.225Z,68.03
2022-12-03T13:01:11.427Z,69.13
2022-12-03T13:04:24.087Z,73.00
2022-12-03T13:07:28.186Z,64.70
2022-12-03T13:10:39.038Z,73.57
2022-12-03T13:13:44.525Z,76.90
2022-12-03T13:16:51.099Z,67.88
2022-12-03T13:20:05.421Z,70.72
2022-12-03T13:23:31.576Z,75.10
2022-12-03T13:26:39.705Z,71.10
2022-12-03T13:29:44.857Z,72.13
2022-12-03T13:32:49.332Z,75.82
2022-12-03T13:35:55.597Z,72.20
2022-12-03T13:38:59.808Z,75.10
2022-12-03T13:42:42.294Z,75.40
2022-12-03T13:45:47.634Z,70.32
2022-12-03T13:48:52.072Z,74.03
2022-12-03T13:51:56.147Z,73.90
2022-12-03T13:55:03.434Z,75.50
2022-12-03T13:58:07.444Z,82.97
2022-12-03T14:01:11.831Z,85.47
2022-12-03T14:04:16.148Z,80.97
2022-12-03T14:07:20.535Z,81.22
2022-12-03T14:10:24.691Z,84.70
2022-12-03T14:13:29.052Z,81.53
2022-12-03T14:16:33.711Z,77.70
2022-12-03T14:19:38.238Z,81.50
2022-12-03T14:22:42.166Z,98.40
2022-12-03T14:25:45.908Z,92.57
2022-12-03T14:28:50.016Z,89.00
2022-12-03T14:31:54.170Z,93.22
2022-12-03T14:34:58.045Z,98.93
2022-12-03T14:38:02.113Z,107.10
2022-12-03T14:41:26.296Z,102.68
2022-12-03T14:44:30.374Z,105.68
2022-12-03T14:47:34.463Z,105.63
2022-12-03T14:50:38.612Z,101.78
2022-12-03T14:53:42.580Z,117.13
2022-12-03T14:56:46.746Z,104.35
2022-12-03T14:59:51.592Z,110.55
2022-12-03T15:02:55.694Z,108.32
2022-12-03T15:06:00.655Z,109.25
2022-12-03T15:09:05.162Z,115.22
2022-12-03T15:12:09.376Z,114.80
2022-12-03T15:15:13.785Z,107.00
2022-12-03T15:18:18.509Z,114.82
2022-12-03T15:21:22.619Z,104.18
2022-12-03T15:24:26.873Z,109.68
2022-12-03T15:27:30.929Z,108.15
2022-12-03T15:30:37.978Z,111.50
2022-12-03T15:33:41.824Z,105.68
2022-12-03T15:36:45.958Z,107.35
2022-12-03T15:39:50.187Z,106.75
2022-12-03T15:42:54.472Z,110.10
2022-12-03T15:45:58.584Z,116.45
2022-12-03T15:49:02.637Z,109.45
2022-12-03T15:52:07.901Z,106.25
2022-12-03T15:55:11.946Z,113.40
2022-12-03T15:58:15.977Z,109.38
2022-12-03T16:01:19.937Z,115.28
2022-12-03T16:04:24.094Z,113.00
2022-12-03T16:07:28.458Z,116.53
2022-12-03T16:10:32.885Z,121.75
2022-12-03T16:13:36.959Z,117.45
2022-12-03T16:16:41.196Z,126.13
2022-12-03T16:19:46.046Z,119.63
2022-12-03T16:22:51.086Z,115.20
2022-12-03T16:25:55.032Z,124.45
2022-12-03T16:28:58.993Z,118.28
2022-12-03T16:32:03.281Z,123.20
2022-12-03T16:35:07.447Z,115.35
2022-12-03T16:38:11.543Z,125.63
2022-12-03T16:41:15.662Z,119.90
2022-12-03T16:44:31.191Z,116.25
2022-12-03T16:47:35.248Z,110.60
2022-12-03T16:50:39.938Z,118.93
2022-12-03T16:53:44.076Z,116.78
2022-12-03T16:56:47.998Z,119.30
2022-12-03T16:59:52.327Z,118.07
2022-12-03T17:02:56.787Z,113.28
2022-12-03T17:06:01.770Z,110.63
2022-12-03T17:09:05.801Z,117.55
2022-12-03T17:12:09.645Z,109.10
2022-12-03T17:15:14.057Z,114.65
2022-12-03T17:18:18.273Z,115.03
2022-12-03T17:21:22.550Z,110.97
2022-12-03T17:24:26.676Z,110.05
2022-12-03T17:27:30.707Z,107.13
2022-12-03T17:30:35.081Z,107.80
2022-12-03T17:33:40.149Z,109.03
2022-12-03T17:36:44.449Z,94.55
2022-12-03T17:39:48.530Z,99.10
2022-12-03T17:42:52.836Z,100.57
2022-12-03T17:45:57.231Z,94.55
2022-12-03T17:49:01.146Z,97.50
2022-12-03T17:52:05.564Z,91.25
2022-12-03T17:55:12.750Z,96.78
2022-12-03T17:58:20.308Z,88.03
2022-12-03T18:01:24.481Z,91.82
2022-12-03T18:04:28.696Z,93.97
2022-12-03T18:07:33.240Z,99.70
2022-12-03T18:10:37.409Z,100.40
2022-12-03T18:13:41.555Z,96.80
2022-12-03T18:16:45.673Z,106.20
2022-12-03T18:19:49.973Z,101.82
2022-12-03T18:22:54.152Z,102.15
2022-12-03T18:25:58.632Z,119.00
2022-12-03T18:29:02.739Z,108.05
2022-12-03T18:32:27.246Z,114.93
2022-12-03T18:35:32.532Z,117.28
2022-12-03T18:38:36.267Z,120.50
2022-12-03T18:41:40.432Z,111.93
2022-12-03T18:44:49.448Z,121.55
2022-12-03T18:47:54.774Z,116.45
2022-12-03T18:50:58.881Z,113.93
2022-12-03T18:54:02.849Z,122.45
2022-12-03T18:57:07.746Z,114.22
2022-12-03T19:00:13.813Z,121.57
2022-12-03T19:03:18.340Z,111.55
2022-12-03T19:06:22.281Z,116.10
2022-12-03T19:09:26.549Z,121.00
2022-12-03T19:12:31.103Z,123.53
2022-12-03T19:15:39.343Z,114.05
2022-12-03T19:18:43.807Z,123.93
2022-12-03T19:21:47.923Z,108.93
2022-12-03T19:24:51.966Z,122.70
2022-12-03T19:27:57.016Z,119.72
2022-12-03T19:31:10.284Z,120.35
2022-12-03T19:34:14.312Z,109.78
2022-12-03T19:37:20.639Z,112.57
2022-12-03T19:40:24.946Z,119.57
2022-12-03T19:43:29.588Z,127.60
2022-12-03T19:46:33.623Z,124.55
2022-12-03T19:49:37.622Z,120.53
2022-12-03T19:52:41.515Z,116.35
2022-12-03T19:55:46.445Z,121.95
2022-12-03T19:58:54.603Z,116.68
2022-12-03T20:01:58.365Z,124.88
2022-12-03T20:05:02.910Z,110.97
2022-12-03T20:08:08.030Z,122.88
2022-12-03T20:11:16.571Z,113.65
2022-12-03T20:14:20.874Z,121.03
2022-12-03T20:17:24.681Z,113.10
2022-12-03T20:20:28.771Z,114.55
2022-12-03T20:23:32.906Z,117.82
2022-12-03T20:26:36.954Z,114.55
2022-12-03T20:29:41.177Z,110.47
2022-12-03T20:32:45.751Z,119.05
2022-12-03T20:35:53.930Z,115.53
2022-12-03T20:39:00.931Z,119.38
2022-12-03T20:42:05.061Z,119.82
2022-12-03T20:45:09.651Z,123.90
2022-12-03T20:48:13.984Z,119.53
2022-12-03T20:51:20.329Z,121.45
2022-12-03T20:54:24.647Z,123.20
2022-12-03T20:57:28.571Z,124.82
2022-12-03T21:00:32.565Z,118.85
2022-12-03T21:03:36.837Z,110.30
2022-12-03T21:06:42.328Z,119.18
2022-12-03T21:09:46.503Z,118.45
2022-12-03T21:12:50.471Z,116.32
2022-12-03T21:16:06.913Z,116.82
2022-12-03T21:19:14.171Z,127.78
2022-12-03T21:22:22.327Z,123.15
2022-12-03T21:25:26.404Z,118.72
2022-12-03T21:28:30.823Z,118.07
2022-12-03T21:31:37.198Z,118.40
2022-12-03T21:34:42.236Z,124.82
2022-12-03T21:37:46.389Z,133.98
2022-12-03T21:40:51.265Z,124.78
2022-12-03T21:43:55.761Z,126.05
2022-12-03T21:47:12.968Z,123.70
2022-12-03T21:50:17.889Z,127.70
2022-12-03T21:53:21.838Z,123.93
2022-12-03T21:56:25.937Z,122.80
2022-12-03T21:59:30.122Z,122.57
2022-12-03T22:02:34.355Z,120.43
2022-12-03T22:05:38.814Z,124.85
2022-12-03T22:08:43.219Z,129.07
2022-12-03T22:11:47.092Z,129.55
2022-12-03T22:14:51.168Z,131.43
2022-12-03T22:17:55.367Z,142.82
2022-12-03T22:21:03.523Z,135.90
2022-12-03T22:24:07.894Z,133.88
2022-12-03T22:27:13.120Z,136.52
2022-12-03T22:30:17.490Z,123.82
2022-12-03T22:33:21.655Z,126.78
2022-12-03T22:36:25.865Z,117.97
2022-12-03T22:39:29.776Z,132.38
2022-12-03T22:42:33.867Z,132.82
2022-12-03T22:45:38.043Z,124.55
2022-12-03T22:48:43.390Z,128.77
2022-12-03T22:51:47.655Z,124.47
2022-12-03T22:54:51.609Z,133.07
2022-12-03T22:57:55.978Z,134.63
2022-12-03T23:01:02.852Z,121.97
2022-12-03T23:04:08.866Z,127.65
2022-12-03T23:07:12.982Z,128.93
2022-12-03T23:10:17.287Z,130.93
2022-12-03T23:13:21.145Z,132.18
2022-12-03T23:16:28.142Z,128.65
2022-12-03T23:19:32.529Z,129.15
2022-12-03T23:22:36.782Z,133.55
2022-12-03T23:25:40.710Z,136.95
2022-12-03T23:28:46.206Z,120.22
2022-12-03T23:31:50.047Z,127.85
2022-12-03T23:34:54.030Z,125.00
2022-12-03T23:37:58.288Z,123.35
2022-12-03T23:41:07.081Z,131.93
2022-12-03T23:44:10.990Z,127.85
2022-12-03T23:47:14.953Z,134.82
2022-12-03T23:50:19.239Z,122.15
2022-12-03T23:53:23.383Z,124.78
2022-12-03T23:56:30.218Z,137.20
2022-12-03T23:59:34.519Z,128.73
